sensor_id;sensor_type;location;lat;lon;timestamp;P1;durP1;ratioP1;P2;durP2;ratioP2
13185;SDS011;6658;53.080;7.428;2022-12-10T00:01:32;67.70;;;29.67;;
13185;SDS011;6658;53.080;7.428;2022-12-10T00:03:59;73.93;;;30.20;;
13185;SDS011;6658;53.080;7.428;2022-12-10T00:06:26;73.77;;;30.47;;
13185;SDS011;6658;53.080;7.428;2022-12-10T00:08:58;74.90;;;32.17;;
13185;SDS011;6658;53.080;7.428;2022-12-10T00:11:25;73.83;;;31.37;;
13185;SDS011;6658;53.080;7.428;2022-12-10T00:13:51;70.63;;;30.67;;
13185;SDS011;6658;53.080;7.428;2022-12-10T00:16:18;77.90;;;32.13;;
13185;SDS011;6658;53.080;7.428;2022-12-10T00:18:46;79.03;;;31.97;;
13185;SDS011;6658;53.080;7.428;2022-12-10T00:21:14;76.57;;;32.10;;
13185;SDS011;6658;53.080;7.428;2022-12-10T00:23:42;73.47;;;31.07;;
13185;SDS011;6658;53.080;7.428;2022-12-10T00:26:09;74.87;;;31.03;;
13185;SDS011;6658;53.080;7.428;2022-12-10T00:28:40;67.73;;;28.80;;
13185;SDS011;6658;53.080;7.428;2022-12-10T00:31:08;71.23;;;32.13;;
13185;SDS011;6658;53.080;7.428;2022-12-10T00:33:36;73.57;;;31.27;;
13185;SDS011;6658;53.080;7.428;2022-12-10T00:36:08;74.27;;;30.20;;
13185;SDS011;6658;53.080;7.428;2022-12-10T00:38:39;69.13;;;30.40;;
13185;SDS011;6658;53.080;7.428;2022-12-10T00:41:05;71.63;;;30.07;;
13185;SDS011;6658;53.080;7.428;2022-12-10T00:43:31;69.03;;;30.77;;
13185;SDS011;6658;53.080;7.428;2022-12-10T00:45:57;70.70;;;29.40;;
13185;SDS011;6658;53.080;7.428;2022-12-10T00:48:23;70.63;;;30.00;;
13185;SDS011;6658;53.080;7.428;2022-12-10T00:51:08;75.40;;;29.97;;
13185;SDS011;6658;53.080;7.428;2022-12-10T00:53:39;70.37;;;30.43;;
13185;SDS011;6658;53.080;7.428;2022-12-10T00:56:06;73.40;;;31.10;;
13185;SDS011;6658;53.080;7.428;2022-12-10T00:58:33;72.50;;;28.90;;
13185;SDS011;6658;53.080;7.428;2022-12-10T01:01:07;76.10;;;31.73;;
13185;SDS011;6658;53.080;7.428;2022-12-10T01:03:42;74.70;;;29.83;;
13185;SDS011;6658;53.080;7.428;2022-12-10T01:06:13;77.87;;;30.17;;
13185;SDS011;6658;53.080;7.428;2022-12-10T01:08:42;73.13;;;29.03;;
13185;SDS011;6658;53.080;7.428;2022-12-10T01:11:09;80.27;;;29.67;;
13185;SDS011;6658;53.080;7.428;2022-12-10T01:13:36;74.47;;;30.47;;
13185;SDS011;6658;53.080;7.428;2022-12-10T01:16:06;72.57;;;28.93;;
13185;SDS011;6658;53.080;7.428;2022-12-10T01:18:33;74.47;;;31.20;;
13185;SDS011;6658;53.080;7.428;2022-12-10T01:21:00;77.03;;;29.93;;
13185;SDS011;6658;53.080;7.428;2022-12-10T01:23:32;75.70;;;31.47;;
13185;SDS011;6658;53.080;7.428;2022-12-10T01:26:00;73.57;;;29.10;;
13185;SDS011;6658;53.080;7.428;2022-12-10T01:28:29;78.53;;;31.13;;
13185;SDS011;6658;53.080;7.428;2022-12-10T01:30:59;72.90;;;30.27;;
13185;SDS011;6658;53.080;7.428;2022-12-10T01:33:26;74.50;;;31.43;;
13185;SDS011;6658;53.080;7.428;2022-12-10T01:35:52;79.47;;;32.43;;
13185;SDS011;6658;53.080;7.428;2022-12-10T01:38:18;77.60;;;33.10;;
13185;SDS011;6658;53.080;7.428;2022-12-10T01:40:43;77.10;;;31.13;;
13185;SDS011;6658;53.080;7.428;2022-12-10T01:43:12;80.60;;;31.90;;
13185;SDS011;6658;53.080;7.428;2022-12-10T01:45:39;76.53;;;31.00;;
13185;SDS011;6658;53.080;7.428;2022-12-10T01:48:05;76.90;;;32.13;;
13185;SDS011;6658;53.080;7.428;2022-12-10T01:50:31;80.80;;;34.17;;
13185;SDS011;6658;53.080;7.428;2022-12-10T01:52:57;82.33;;;32.53;;
13185;SDS011;6658;53.080;7.428;2022-12-10T01:58:09;77.80;;;31.57;;
13185;SDS011;6658;53.080;7.428;2022-12-10T02:00:38;81.07;;;32.37;;
13185;SDS011;6658;53.080;7.428;2022-12-10T02:03:16;75.83;;;32.80;;
13185;SDS011;6658;53.080;7.428;2022-12-10T02:05:49;74.20;;;31.53;;
13185;SDS011;6658;53.080;7.428;2022-12-10T02:08:37;82.17;;;31.40;;
13185;SDS011;6658;53.080;7.428;2022-12-10T02:11:17;81.93;;;32.67;;
13185;SDS011;6658;53.080;7.428;2022-12-10T02:13:55;73.73;;;34.17;;
13185;SDS011;6658;53.080;7.428;2022-12-10T02:16:31;79.30;;;32.83;;
13185;SDS011;6658;53.080;7.428;2022-12-10T02:21:48;76.10;;;32.93;;
13185;SDS011;6658;53.080;7.428;2022-12-10T02:24:18;80.43;;;31.30;;
13185;SDS011;6658;53.080;7.428;2022-12-10T02:29:39;82.53;;;34.67;;
13185;SDS011;6658;53.080;7.428;2022-12-10T02:32:19;80.67;;;34.93;;
13185;SDS011;6658;53.080;7.428;2022-12-10T02:34:55;84.93;;;34.37;;
13185;SDS011;6658;53.080;7.428;2022-12-10T02:37:24;78.47;;;33.27;;
13185;SDS011;6658;53.080;7.428;2022-12-10T02:39:55;87.63;;;33.40;;
13185;SDS011;6658;53.080;7.428;2022-12-10T02:42:24;79.37;;;33.83;;
13185;SDS011;6658;53.080;7.428;2022-12-10T02:44:51;86.50;;;34.87;;
13185;SDS011;6658;53.080;7.428;2022-12-10T02:47:18;83.90;;;32.73;;
13185;SDS011;6658;53.080;7.428;2022-12-10T02:49:50;79.17;;;34.27;;
13185;SDS011;6658;53.080;7.428;2022-12-10T02:52:18;91.53;;;35.27;;
13185;SDS011;6658;53.080;7.428;2022-12-10T02:54:46;78.63;;;34.73;;
13185;SDS011;6658;53.080;7.428;2022-12-10T03:02:53;84.13;;;35.53;;
13185;SDS011;6658;53.080;7.428;2022-12-10T03:05:47;97.53;;;36.20;;
13185;SDS011;6658;53.080;7.428;2022-12-10T03:08:48;94.23;;;36.10;;
13185;SDS011;6658;53.080;7.428;2022-12-10T03:11:24;81.70;;;36.77;;
13185;SDS011;6658;53.080;7.428;2022-12-10T03:16:28;86.03;;;35.57;;
13185;SDS011;6658;53.080;7.428;2022-12-10T03:19:02;85.77;;;36.13;;
13185;SDS011;6658;53.080;7.428;2022-12-10T03:21:32;84.20;;;34.47;;
13185;SDS011;6658;53.080;7.428;2022-12-10T03:24:01;91.53;;;36.77;;
13185;SDS011;6658;53.080;7.428;2022-12-10T03:26:28;97.37;;;37.20;;
13185;SDS011;6658;53.080;7.428;2022-12-10T03:28:56;94.17;;;36.73;;
13185;SDS011;6658;53.080;7.428;2022-12-10T03:31:28;97.73;;;38.43;;
13185;SDS011;6658;53.080;7.428;2022-12-10T03:33:55;91.43;;;37.63;;
13185;SDS011;6658;53.080;7.428;2022-12-10T03:36:21;89.40;;;38.27;;
13185;SDS011;6658;53.080;7.428;2022-12-10T03:38:47;93.73;;;37.00;;
13185;SDS011;6658;53.080;7.428;2022-12-10T03:41:13;95.23;;;39.23;;
13185;SDS011;6658;53.080;7.428;2022-12-10T03:46:17;87.03;;;36.13;;
13185;SDS011;6658;53.080;7.428;2022-12-10T03:48:43;93.90;;;36.30;;
13185;SDS011;6658;53.080;7.428;2022-12-10T03:51:08;92.60;;;36.97;;
13185;SDS011;6658;53.080;7.428;2022-12-10T03:53:34;98.90;;;38.93;;
13185;SDS011;6658;53.080;7.428;2022-12-10T03:55:59;84.87;;;37.90;;
13185;SDS011;6658;53.080;7.428;2022-12-10T03:58:25;90.80;;;38.47;;
13185;SDS011;6658;53.080;7.428;2022-12-10T04:00:51;94.30;;;36.77;;
13185;SDS011;6658;53.080;7.428;2022-12-10T04:03:16;97.50;;;36.63;;
13185;SDS011;6658;53.080;7.428;2022-12-10T04:05:42;96.83;;;38.87;;
13185;SDS011;6658;53.080;7.428;2022-12-10T04:08:08;84.50;;;37.53;;
13185;SDS011;6658;53.080;7.428;2022-12-10T04:10:37;94.00;;;38.77;;
13185;SDS011;6658;53.080;7.428;2022-12-10T04:13:03;95.10;;;38.43;;
13185;SDS011;6658;53.080;7.428;2022-12-10T04:15:48;88.83;;;36.53;;
13185;SDS011;6658;53.080;7.428;2022-12-10T04:18:32;88.07;;;37.57;;
13185;SDS011;6658;53.080;7.428;2022-12-10T04:20:58;97.57;;;37.47;;
13185;SDS011;6658;53.080;7.428;2022-12-10T04:23:42;95.40;;;36.93;;
13185;SDS011;6658;53.080;7.428;2022-12-10T04:26:26;94.10;;;37.67;;
13185;SDS011;6658;53.080;7.428;2022-12-10T04:29:10;104.20;;;39.23;;
13185;SDS011;6658;53.080;7.428;2022-12-10T04:31:37;101.67;;;38.50;;
13185;SDS011;6658;53.080;7.428;2022-12-10T04:34:03;94.73;;;39.37;;
13185;SDS011;6658;53.080;7.428;2022-12-10T04:36:28;89.23;;;37.53;;
13185;SDS011;6658;53.080;7.428;2022-12-10T04:38:54;102.20;;;39.00;;
13185;SDS011;6658;53.080;7.428;2022-12-10T04:41:19;106.47;;;39.03;;
13185;SDS011;6658;53.080;7.428;2022-12-10T04:43:45;99.13;;;39.77;;
13185;SDS011;6658;53.080;7.428;2022-12-10T04:46:11;101.77;;;40.33;;
13185;SDS011;6658;53.080;7.428;2022-12-10T04:48:36;97.23;;;39.20;;
13185;SDS011;6658;53.080;7.428;2022-12-10T04:51:02;97.03;;;38.17;;
13185;SDS011;6658;53.080;7.428;2022-12-10T04:53:29;98.83;;;38.33;;
13185;SDS011;6658;53.080;7.428;2022-12-10T04:55:54;94.37;;;37.80;;
13185;SDS011;6658;53.080;7.428;2022-12-10T04:58:20;109.17;;;38.87;;
13185;SDS011;6658;53.080;7.428;2022-12-10T05:00:46;104.27;;;39.77;;
13185;SDS011;6658;53.080;7.428;2022-12-10T05:03:11;110.37;;;41.77;;
13185;SDS011;6658;53.080;7.428;2022-12-10T05:05:37;92.60;;;38.50;;
13185;SDS011;6658;53.080;7.428;2022-12-10T05:08:03;107.33;;;39.27;;
13185;SDS011;6658;53.080;7.428;2022-12-10T05:10:29;109.53;;;40.77;;
13185;SDS011;6658;53.080;7.428;2022-12-10T05:12:55;99.73;;;37.53;;
13185;SDS011;6658;53.080;7.428;2022-12-10T05:15:21;98.93;;;38.37;;
13185;SDS011;6658;53.080;7.428;2022-12-10T05:17:46;107.27;;;40.43;;
13185;SDS011;6658;53.080;7.428;2022-12-10T05:20:12;105.47;;;38.97;;
13185;SDS011;6658;53.080;7.428;2022-12-10T05:22:38;94.37;;;37.90;;
13185;SDS011;6658;53.080;7.428;2022-12-10T05:25:22;110.67;;;37.83;;
13185;SDS011;6658;53.080;7.428;2022-12-10T05:27:48;105.97;;;41.20;;
13185;SDS011;6658;53.080;7.428;2022-12-10T05:30:13;103.90;;;40.93;;
13185;SDS011;6658;53.080;7.428;2022-12-10T05:32:39;106.50;;;39.47;;
13185;SDS011;6658;53.080;7.428;2022-12-10T05:35:05;107.07;;;40.33;;
13185;SDS011;6658;53.080;7.428;2022-12-10T05:37:31;103.07;;;40.73;;
13185;SDS011;6658;53.080;7.428;2022-12-10T05:39:57;99.73;;;38.73;;
13185;SDS011;6658;53.080;7.428;2022-12-10T05:42:23;115.00;;;40.67;;
13185;SDS011;6658;53.080;7.428;2022-12-10T05:44:49;110.80;;;39.13;;
13185;SDS011;6658;53.080;7.428;2022-12-10T05:47:14;108.17;;;41.80;;
13185;SDS011;6658;53.080;7.428;2022-12-10T05:49:40;108.83;;;40.03;;
13185;SDS011;6658;53.080;7.428;2022-12-10T05:52:05;112.23;;;43.33;;
13185;SDS011;6658;53.080;7.428;2022-12-10T05:54:33;109.10;;;41.17;;
13185;SDS011;6658;53.080;7.428;2022-12-10T05:56:59;107.93;;;41.53;;
13185;SDS011;6658;53.080;7.428;2022-12-10T05:59:25;102.97;;;41.40;;
13185;SDS011;6658;53.080;7.428;2022-12-10T06:01:50;110.07;;;41.77;;
13185;SDS011;6658;53.080;7.428;2022-12-10T06:04:16;103.63;;;42.03;;
13185;SDS011;6658;53.080;7.428;2022-12-10T06:06:41;104.27;;;40.70;;
13185;SDS011;6658;53.080;7.428;2022-12-10T06:09:10;97.63;;;38.93;;
13185;SDS011;6658;53.080;7.428;2022-12-10T06:11:37;103.47;;;40.70;;
13185;SDS011;6658;53.080;7.428;2022-12-10T06:14:03;93.60;;;38.87;;
13185;SDS011;6658;53.080;7.428;2022-12-10T06:16:29;103.60;;;41.10;;
13185;SDS011;6658;53.080;7.428;2022-12-10T06:18:55;112.70;;;40.30;;
13185;SDS011;6658;53.080;7.428;2022-12-10T06:21:21;100.53;;;40.57;;
13185;SDS011;6658;53.080;7.428;2022-12-10T06:23:48;108.17;;;39.73;;
13185;SDS011;6658;53.080;7.428;2022-12-10T06:26:17;99.77;;;39.90;;
13185;SDS011;6658;53.080;7.428;2022-12-10T06:28:48;104.07;;;40.50;;
13185;SDS011;6658;53.080;7.428;2022-12-10T06:31:14;102.97;;;38.97;;
13185;SDS011;6658;53.080;7.428;2022-12-10T06:33:40;99.03;;;39.87;;
13185;SDS011;6658;53.080;7.428;2022-12-10T06:36:07;104.50;;;39.70;;
13185;SDS011;6658;53.080;7.428;2022-12-10T06:38:35;90.80;;;40.10;;
13185;SDS011;6658;53.080;7.428;2022-12-10T06:41:04;99.23;;;40.10;;
13185;SDS011;6658;53.080;7.428;2022-12-10T06:43:31;96.20;;;39.93;;
13185;SDS011;6658;53.080;7.428;2022-12-10T06:45:57;90.03;;;40.27;;
13185;SDS011;6658;53.080;7.428;2022-12-10T06:48:23;94.17;;;38.37;;
13185;SDS011;6658;53.080;7.428;2022-12-10T06:50:48;88.07;;;37.17;;
13185;SDS011;6658;53.080;7.428;2022-12-10T06:53:14;97.80;;;41.37;;
13185;SDS011;6658;53.080;7.428;2022-12-10T06:55:40;94.93;;;41.87;;
13185;SDS011;6658;53.080;7.428;2022-12-10T06:58:05;87.23;;;40.53;;
13185;SDS011;6658;53.080;7.428;2022-12-10T07:00:31;97.80;;;42.27;;
13185;SDS011;6658;53.080;7.428;2022-12-10T07:02:57;86.97;;;37.70;;
13185;SDS011;6658;53.080;7.428;2022-12-10T07:05:22;98.63;;;42.77;;
13185;SDS011;6658;53.080;7.428;2022-12-10T07:07:48;98.17;;;45.43;;
13185;SDS011;6658;53.080;7.428;2022-12-10T07:10:14;95.70;;;43.07;;
13185;SDS011;6658;53.080;7.428;2022-12-10T07:12:40;86.83;;;40.17;;
13185;SDS011;6658;53.080;7.428;2022-12-10T07:15:06;80.77;;;35.63;;
13185;SDS011;6658;53.080;7.428;2022-12-10T07:17:32;87.30;;;36.73;;
13185;SDS011;6658;53.080;7.428;2022-12-10T07:19:57;80.97;;;35.00;;
13185;SDS011;6658;53.080;7.428;2022-12-10T07:22:23;83.07;;;36.17;;
13185;SDS011;6658;53.080;7.428;2022-12-10T07:24:49;84.53;;;36.97;;
13185;SDS011;6658;53.080;7.428;2022-12-10T07:27:15;81.30;;;36.73;;
13185;SDS011;6658;53.080;7.428;2022-12-10T07:29:41;80.63;;;35.50;;
13185;SDS011;6658;53.080;7.428;2022-12-10T07:32:08;78.57;;;36.03;;
13185;SDS011;6658;53.080;7.428;2022-12-10T07:34:34;75.97;;;35.03;;
13185;SDS011;6658;53.080;7.428;2022-12-10T07:36:59;89.73;;;38.63;;
13185;SDS011;6658;53.080;7.428;2022-12-10T07:39:25;80.67;;;37.40;;
13185;SDS011;6658;53.080;7.428;2022-12-10T07:41:51;81.60;;;37.30;;
13185;SDS011;6658;53.080;7.428;2022-12-10T07:44:21;83.03;;;35.40;;
13185;SDS011;6658;53.080;7.428;2022-12-10T07:46:49;77.30;;;36.67;;
13185;SDS011;6658;53.080;7.428;2022-12-10T07:49:16;79.57;;;34.67;;
13185;SDS011;6658;53.080;7.428;2022-12-10T07:51:46;70.63;;;33.50;;
13185;SDS011;6658;53.080;7.428;2022-12-10T07:54:15;76.47;;;34.67;;
13185;SDS011;6658;53.080;7.428;2022-12-10T07:56:42;80.13;;;34.93;;
13185;SDS011;6658;53.080;7.428;2022-12-10T07:59:08;76.60;;;34.67;;
13185;SDS011;6658;53.080;7.428;2022-12-10T08:01:34;74.03;;;34.00;;
13185;SDS011;6658;53.080;7.428;2022-12-10T08:03:59;73.30;;;35.60;;
13185;SDS011;6658;53.080;7.428;2022-12-10T08:06:25;74.17;;;34.43;;
13185;SDS011;6658;53.080;7.428;2022-12-10T08:08:52;72.13;;;33.53;;
13185;SDS011;6658;53.080;7.428;2022-12-10T08:11:19;82.40;;;35.57;;
13185;SDS011;6658;53.080;7.428;2022-12-10T08:13:46;73.80;;;34.20;;
13185;SDS011;6658;53.080;7.428;2022-12-10T08:16:16;75.80;;;35.03;;
13185;SDS011;6658;53.080;7.428;2022-12-10T08:18:44;71.80;;;36.03;;
13185;SDS011;6658;53.080;7.428;2022-12-10T08:21:12;74.93;;;34.50;;
13185;SDS011;6658;53.080;7.428;2022-12-10T08:23:39;74.13;;;35.93;;
13185;SDS011;6658;53.080;7.428;2022-12-10T08:26:05;70.23;;;35.97;;
13185;SDS011;6658;53.080;7.428;2022-12-10T08:28:32;75.23;;;36.47;;
13185;SDS011;6658;53.080;7.428;2022-12-10T08:30:59;74.83;;;35.87;;
13185;SDS011;6658;53.080;7.428;2022-12-10T08:33:25;72.93;;;35.17;;
13185;SDS011;6658;53.080;7.428;2022-12-10T08:35:51;77.30;;;35.53;;
13185;SDS011;6658;53.080;7.428;2022-12-10T08:38:16;74.90;;;35.00;;
13185;SDS011;6658;53.080;7.428;2022-12-10T08:40:42;76.70;;;34.40;;
13185;SDS011;6658;53.080;7.428;2022-12-10T08:43:08;71.20;;;35.80;;
13185;SDS011;6658;53.080;7.428;2022-12-10T08:45:34;73.97;;;35.77;;
13185;SDS011;6658;53.080;7.428;2022-12-10T08:48:03;68.50;;;34.63;;
13185;SDS011;6658;53.080;7.428;2022-12-10T08:50:28;78.80;;;36.40;;
13185;SDS011;6658;53.080;7.428;2022-12-10T08:52:54;76.83;;;38.27;;
13185;SDS011;6658;53.080;7.428;2022-12-10T08:55:20;72.90;;;38.07;;
13185;SDS011;6658;53.080;7.428;2022-12-10T08:57:45;73.40;;;37.23;;
13185;SDS011;6658;53.080;7.428;2022-12-10T09:00:11;72.17;;;35.77;;
13185;SDS011;6658;53.080;7.428;2022-12-10T09:02:38;68.17;;;34.70;;
13185;SDS011;6658;53.080;7.428;2022-12-10T09:05:04;68.93;;;34.90;;
13185;SDS011;6658;53.080;7.428;2022-12-10T09:07:30;74.23;;;36.90;;
13185;SDS011;6658;53.080;7.428;2022-12-10T09:09:56;71.37;;;34.77;;
13185;SDS011;6658;53.080;7.428;2022-12-10T09:12:22;74.40;;;37.70;;
13185;SDS011;6658;53.080;7.428;2022-12-10T09:14:48;75.80;;;34.93;;
13185;SDS011;6658;53.080;7.428;2022-12-10T09:17:14;70.37;;;36.70;;
13185;SDS011;6658;53.080;7.428;2022-12-10T09:19:39;73.00;;;35.37;;
13185;SDS011;6658;53.080;7.428;2022-12-10T09:22:05;71.70;;;34.60;;
13185;SDS011;6658;53.080;7.428;2022-12-10T09:24:31;61.40;;;33.60;;
13185;SDS011;6658;53.080;7.428;2022-12-10T09:26:56;71.07;;;36.10;;
13185;SDS011;6658;53.080;7.428;2022-12-10T09:29:22;69.77;;;36.17;;
13185;SDS011;6658;53.080;7.428;2022-12-10T09:31:51;68.43;;;36.33;;
13185;SDS011;6658;53.080;7.428;2022-12-10T09:34:17;66.97;;;35.60;;
13185;SDS011;6658;53.080;7.428;2022-12-10T09:36:43;70.33;;;36.30;;
13185;SDS011;6658;53.080;7.428;2022-12-10T09:39:09;76.23;;;36.93;;
13185;SDS011;6658;53.080;7.428;2022-12-10T09:47:08;71.47;;;37.00;;
13185;SDS011;6658;53.080;7.428;2022-12-10T09:52:45;77.57;;;37.37;;
13185;SDS011;6658;53.080;7.428;2022-12-10T09:55:14;62.47;;;34.87;;
13185;SDS011;6658;53.080;7.428;2022-12-10T09:57:51;62.33;;;35.27;;
13185;SDS011;6658;53.080;7.428;2022-12-10T10:03:02;66.23;;;35.17;;
13185;SDS011;6658;53.080;7.428;2022-12-10T10:05:35;56.60;;;32.60;;
13185;SDS011;6658;53.080;7.428;2022-12-10T10:11:04;60.03;;;34.73;;
13185;SDS011;6658;53.080;7.428;2022-12-10T10:13:38;62.60;;;34.53;;
13185;SDS011;6658;53.080;7.428;2022-12-10T10:19:28;59.00;;;35.53;;
13185;SDS011;6658;53.080;7.428;2022-12-10T10:21:40;56.63;;;33.17;;
13185;SDS011;6658;53.080;7.428;2022-12-10T10:24:09;56.87;;;34.53;;
13185;SDS011;6658;53.080;7.428;2022-12-10T10:26:38;52.77;;;31.67;;
13185;SDS011;6658;53.080;7.428;2022-12-10T10:29:08;51.87;;;31.00;;
13185;SDS011;6658;53.080;7.428;2022-12-10T10:31:38;54.37;;;31.73;;
13185;SDS011;6658;53.080;7.428;2022-12-10T10:34:12;50.00;;;31.60;;
13185;SDS011;6658;53.080;7.428;2022-12-10T10:36:46;50.10;;;31.17;;
13185;SDS011;6658;53.080;7.428;2022-12-10T10:41:52;49.43;;;30.37;;
13185;SDS011;6658;53.080;7.428;2022-12-10T10:44:20;43.57;;;28.60;;
13185;SDS011;6658;53.080;7.428;2022-12-10T10:46:49;41.13;;;28.37;;
13185;SDS011;6658;53.080;7.428;2022-12-10T10:49:24;43.17;;;29.43;;
13185;SDS011;6658;53.080;7.428;2022-12-10T10:51:52;40.70;;;26.63;;
13185;SDS011;6658;53.080;7.428;2022-12-10T10:54:39;35.57;;;25.67;;
13185;SDS011;6658;53.080;7.428;2022-12-10T10:57:11;35.27;;;25.23;;
13185;SDS011;6658;53.080;7.428;2022-12-10T10:59:45;31.57;;;23.80;;
13185;SDS011;6658;53.080;7.428;2022-12-10T11:02:29;29.83;;;22.97;;
13185;SDS011;6658;53.080;7.428;2022-12-10T11:05:01;28.87;;;23.17;;
13185;SDS011;6658;53.080;7.428;2022-12-10T11:07:42;29.03;;;22.27;;
13185;SDS011;6658;53.080;7.428;2022-12-10T11:12:54;28.07;;;22.30;;
13185;SDS011;6658;53.080;7.428;2022-12-10T11:17:49;28.70;;;20.47;;
13185;SDS011;6658;53.080;7.428;2022-12-10T11:22:50;25.10;;;20.70;;
13185;SDS011;6658;53.080;7.428;2022-12-10T11:25:38;24.20;;;20.00;;
13185;SDS011;6658;53.080;7.428;2022-12-10T11:30:45;23.07;;;19.53;;
13185;SDS011;6658;53.080;7.428;2022-12-10T11:44:50;24.73;;;19.17;;
13185;SDS011;6658;53.080;7.428;2022-12-10T11:58:32;24.83;;;19.27;;
13185;SDS011;6658;53.080;7.428;2022-12-10T12:09:30;24.67;;;18.87;;
13185;SDS011;6658;53.080;7.428;2022-12-10T12:14:54;24.17;;;18.87;;
13185;SDS011;6658;53.080;7.428;2022-12-10T12:17:27;23.93;;;18.57;;
13185;SDS011;6658;53.080;7.428;2022-12-10T12:19:58;22.83;;;18.47;;
13185;SDS011;6658;53.080;7.428;2022-12-10T12:22:36;24.47;;;19.97;;
13185;SDS011;6658;53.080;7.428;2022-12-10T12:25:20;26.50;;;19.57;;
13185;SDS011;6658;53.080;7.428;2022-12-10T12:27:51;21.47;;;17.90;;
13185;SDS011;6658;53.080;7.428;2022-12-10T12:30:22;26.33;;;19.53;;
13185;SDS011;6658;53.080;7.428;2022-12-10T12:33:02;24.47;;;19.57;;
13185;SDS011;6658;53.080;7.428;2022-12-10T12:35:40;24.43;;;19.23;;
13185;SDS011;6658;53.080;7.428;2022-12-10T12:41:04;25.37;;;19.30;;
13185;SDS011;6658;53.080;7.428;2022-12-10T12:43:37;26.07;;;20.27;;
13185;SDS011;6658;53.080;7.428;2022-12-10T12:46:20;24.10;;;18.80;;
13185;SDS011;6658;53.080;7.428;2022-12-10T12:49:02;25.80;;;20.33;;
13185;SDS011;6658;53.080;7.428;2022-12-10T12:51:43;25.90;;;21.10;;
13185;SDS011;6658;53.080;7.428;2022-12-10T12:54:15;27.97;;;20.70;;
13185;SDS011;6658;53.080;7.428;2022-12-10T13:02:01;26.77;;;19.67;;
13185;SDS011;6658;53.080;7.428;2022-12-10T13:04:51;25.97;;;20.23;;
13185;SDS011;6658;53.080;7.428;2022-12-10T13:09:50;23.83;;;19.60;;
13185;SDS011;6658;53.080;7.428;2022-12-10T13:12:50;21.83;;;17.97;;
13185;SDS011;6658;53.080;7.428;2022-12-10T13:15:40;24.63;;;20.77;;
13185;SDS011;6658;53.080;7.428;2022-12-10T13:20:45;26.30;;;19.87;;
13185;SDS011;6658;53.080;7.428;2022-12-10T13:37:29;27.43;;;20.77;;
13185;SDS011;6658;53.080;7.428;2022-12-10T13:49:59;29.30;;;23.73;;
13185;SDS011;6658;53.080;7.428;2022-12-10T13:58:22;29.60;;;21.20;;
13185;SDS011;6658;53.080;7.428;2022-12-10T14:08:39;28.77;;;22.70;;
13185;SDS011;6658;53.080;7.428;2022-12-10T14:11:13;29.10;;;22.30;;
13185;SDS011;6658;53.080;7.428;2022-12-10T14:13:52;29.77;;;21.43;;
13185;SDS011;6658;53.080;7.428;2022-12-10T14:16:22;28.23;;;20.97;;
13185;SDS011;6658;53.080;7.428;2022-12-10T14:18:52;29.17;;;21.77;;
13185;SDS011;6658;53.080;7.428;2022-12-10T14:21:22;29.27;;;21.93;;
13185;SDS011;6658;53.080;7.428;2022-12-10T14:23:49;29.00;;;21.47;;
13185;SDS011;6658;53.080;7.428;2022-12-10T14:26:17;32.33;;;23.03;;
13185;SDS011;6658;53.080;7.428;2022-12-10T14:31:18;29.87;;;23.17;;
13185;SDS011;6658;53.080;7.428;2022-12-10T14:33:47;29.03;;;22.93;;
13185;SDS011;6658;53.080;7.428;2022-12-10T14:36:37;31.60;;;23.17;;
13185;SDS011;6658;53.080;7.428;2022-12-10T14:39:12;31.13;;;22.97;;
13185;SDS011;6658;53.080;7.428;2022-12-10T14:41:41;28.03;;;22.00;;
13185;SDS011;6658;53.080;7.428;2022-12-10T14:44:08;29.33;;;21.80;;
13185;SDS011;6658;53.080;7.428;2022-12-10T14:46:38;28.50;;;22.07;;
13185;SDS011;6658;53.080;7.428;2022-12-10T14:49:04;32.80;;;23.67;;
13185;SDS011;6658;53.080;7.428;2022-12-10T14:51:32;29.23;;;23.23;;
13185;SDS011;6658;53.080;7.428;2022-12-10T14:53:58;34.53;;;23.90;;
13185;SDS011;6658;53.080;7.428;2022-12-10T15:01:34;28.43;;;22.73;;
13185;SDS011;6658;53.080;7.428;2022-12-10T15:04:06;31.80;;;23.83;;
13185;SDS011;6658;53.080;7.428;2022-12-10T15:06:44;34.70;;;24.13;;
13185;SDS011;6658;53.080;7.428;2022-12-10T15:09:16;30.17;;;23.00;;
13185;SDS011;6658;53.080;7.428;2022-12-10T15:11:52;35.27;;;24.57;;
13185;SDS011;6658;53.080;7.428;2022-12-10T15:14:19;32.00;;;23.03;;
13185;SDS011;6658;53.080;7.428;2022-12-10T15:16:46;31.23;;;23.40;;
13185;SDS011;6658;53.080;7.428;2022-12-10T15:19:23;31.20;;;21.57;;
13185;SDS011;6658;53.080;7.428;2022-12-10T15:21:49;33.93;;;23.47;;
13185;SDS011;6658;53.080;7.428;2022-12-10T15:24:27;32.30;;;23.23;;
13185;SDS011;6658;53.080;7.428;2022-12-10T15:27:00;34.77;;;25.40;;
13185;SDS011;6658;53.080;7.428;2022-12-10T15:29:29;37.53;;;25.87;;
13185;SDS011;6658;53.080;7.428;2022-12-10T15:31:58;31.60;;;22.33;;
13185;SDS011;6658;53.080;7.428;2022-12-10T15:34:44;31.03;;;22.90;;
13185;SDS011;6658;53.080;7.428;2022-12-10T15:37:20;31.43;;;22.73;;
13185;SDS011;6658;53.080;7.428;2022-12-10T15:39:53;32.13;;;23.20;;
13185;SDS011;6658;53.080;7.428;2022-12-10T15:44:54;35.43;;;24.30;;
13185;SDS011;6658;53.080;7.428;2022-12-10T15:47:24;37.03;;;24.73;;
13185;SDS011;6658;53.080;7.428;2022-12-10T15:49:52;33.77;;;24.47;;
13185;SDS011;6658;53.080;7.428;2022-12-10T15:52:20;32.03;;;24.20;;
13185;SDS011;6658;53.080;7.428;2022-12-10T15:54:57;33.17;;;22.63;;
13185;SDS011;6658;53.080;7.428;2022-12-10T15:59:56;32.87;;;23.20;;
13185;SDS011;6658;53.080;7.428;2022-12-10T16:04:57;32.07;;;23.70;;
13185;SDS011;6658;53.080;7.428;2022-12-10T16:07:23;35.63;;;24.03;;
13185;SDS011;6658;53.080;7.428;2022-12-10T16:09:48;34.77;;;23.83;;
13185;SDS011;6658;53.080;7.428;2022-12-10T16:12:15;36.40;;;23.47;;
13185;SDS011;6658;53.080;7.428;2022-12-10T16:14:48;34.10;;;22.93;;
13185;SDS011;6658;53.080;7.428;2022-12-10T16:17:16;31.17;;;22.00;;
13185;SDS011;6658;53.080;7.428;2022-12-10T16:19:42;37.43;;;23.80;;
13185;SDS011;6658;53.080;7.428;2022-12-10T16:22:08;34.30;;;23.50;;
13185;SDS011;6658;53.080;7.428;2022-12-10T16:24:34;34.10;;;23.00;;
13185;SDS011;6658;53.080;7.428;2022-12-10T16:27:01;32.47;;;22.47;;
13185;SDS011;6658;53.080;7.428;2022-12-10T16:29:26;35.67;;;24.20;;
13185;SDS011;6658;53.080;7.428;2022-12-10T16:31:52;36.47;;;23.33;;
13185;SDS011;6658;53.080;7.428;2022-12-10T16:34:18;35.77;;;23.37;;
13185;SDS011;6658;53.080;7.428;2022-12-10T16:36:43;37.00;;;24.87;;
13185;SDS011;6658;53.080;7.428;2022-12-10T16:39:09;35.00;;;23.73;;
13185;SDS011;6658;53.080;7.428;2022-12-10T16:41:35;40.60;;;23.60;;
13185;SDS011;6658;53.080;7.428;2022-12-10T16:44:00;41.87;;;25.20;;
13185;SDS011;6658;53.080;7.428;2022-12-10T16:46:26;38.03;;;25.23;;
13185;SDS011;6658;53.080;7.428;2022-12-10T16:48:52;42.67;;;25.63;;
13185;SDS011;6658;53.080;7.428;2022-12-10T16:51:20;36.77;;;23.03;;
13185;SDS011;6658;53.080;7.428;2022-12-10T16:53:49;38.73;;;22.83;;
13185;SDS011;6658;53.080;7.428;2022-12-10T16:56:15;42.60;;;23.40;;
13185;SDS011;6658;53.080;7.428;2022-12-10T16:58:42;38.03;;;23.27;;
13185;SDS011;6658;53.080;7.428;2022-12-10T17:01:14;40.50;;;23.00;;
13185;SDS011;6658;53.080;7.428;2022-12-10T17:03:48;40.63;;;23.53;;
13185;SDS011;6658;53.080;7.428;2022-12-10T17:06:18;42.40;;;24.17;;
13185;SDS011;6658;53.080;7.428;2022-12-10T17:08:44;39.97;;;23.80;;
13185;SDS011;6658;53.080;7.428;2022-12-10T17:11:17;38.53;;;23.07;;
13185;SDS011;6658;53.080;7.428;2022-12-10T17:14:03;36.07;;;22.33;;
13185;SDS011;6658;53.080;7.428;2022-12-10T17:16:30;33.23;;;22.00;;